Time;durP1;ratioP1;P1;durP2;ratioP2;P2;SDS_P1;SDS_P2;PMS_P1;PMS_P2;Temp;Humidity;BMP_temperature;BMP_pressure;BME280_temperature;BME280_humidity;BME280_pressure;Samples;Min_cycle;Max_cycle;Signal;HPM_P1;HPM_P2
2024/01/29 00:02:00;;;;;;;5.18;4.68;;;18.20;56.80;;;;;;5055238;28;20657;-76
2024/01/29 00:04:25;;;;;;;4.80;4.40;;;18.10;56.70;;;;;;5088195;28;20194;-75
2024/01/29 00:06:51;;;;;;;5.28;4.63;;;18.10;56.70;;;;;;5054596;28;20187;-76
2024/01/29 00:09:17;;;;;;;5.00;4.50;;;18.10;56.70;;;;;;5065148;28;20194;-75
2024/01/29 00:11:43;;;;;;;5.18;4.78;;;18.20;56.70;;;;;;5056186;28;20566;-76
2024/01/29 00:14:09;;;;;;;4.38;3.97;;;18.10;56.70;;;;;;5054670;28;20191;-74
2024/01/29 00:16:35;;;;;;;5.40;4.90;;;18.10;56.70;;;;;;5049650;28;20262;-75
2024/01/29 00:19:01;;;;;;;4.97;4.43;;;18.10;56.70;;;;;;5054275;28;20672;-75
2024/01/29 00:21:26;;;;;;;4.90;4.43;;;18.10;56.60;;;;;;5070761;28;20190;-76
2024/01/29 00:23:54;;;;;;;4.57;4.18;;;18.10;56.60;;;;;;5062649;28;20190;-74
2024/01/29 00:26:19;;;;;;;4.47;4.07;;;18.10;56.70;;;;;;5036382;28;20218;-76
2024/01/29 00:28:45;;;;;;;4.93;4.43;;;18.10;56.70;;;;;;5056426;28;20193;-76
2024/01/29 00:31:11;;;;;;;4.63;4.22;;;18.10;56.70;;;;;;5054101;28;20276;-74
2024/01/29 00:33:36;;;;;;;4.60;4.13;;;18.10;56.70;;;;;;5055583;28;20207;-76
2024/01/29 00:36:03;;;;;;;4.93;4.43;;;18.10;56.60;;;;;;5053508;28;20206;-75
2024/01/29 00:38:29;;;;;;;3.88;3.55;;;18.10;56.70;;;;;;5053813;28;20186;-75
2024/01/29 00:40:55;;;;;;;4.63;4.13;;;18.10;56.60;;;;;;5054014;28;20201;-76
2024/01/29 00:43:21;;;;;;;4.78;4.28;;;18.10;56.60;;;;;;5052615;28;20190;-76
2024/01/29 00:45:46;;;;;;;4.60;4.20;;;18.10;56.50;;;;;;5054022;28;20213;-75
2024/01/29 00:48:12;;;;;;;4.53;4.13;;;18.10;56.50;;;;;;5084890;28;20186;-74
2024/01/29 00:50:38;;;;;;;3.90;3.60;;;18.10;56.60;;;;;;5056734;28;20214;-76
2024/01/29 00:53:04;;;;;;;3.92;3.60;;;18.10;56.60;;;;;;5089076;28;20183;-76
2024/01/29 00:55:29;;;;;;;4.53;4.10;;;18.10;56.50;;;;;;5036270;28;20293;-76
2024/01/29 00:57:55;;;;;;;4.25;3.85;;;18.10;56.50;;;;;;5053167;28;20269;-76
2024/01/29 01:00:21;;;;;;;4.47;4.07;;;18.10;56.50;;;;;;5038174;28;20201;-76
2024/01/29 01:02:47;;;;;;;4.95;4.45;;;18.10;56.50;;;;;;5068217;28;20179;-76
2024/01/29 01:05:13;;;;;;;4.38;3.97;;;18.10;56.50;;;;;;5045801;28;20202;-76
2024/01/29 01:07:38;;;;;;;4.03;3.63;;;18.10;56.50;;;;;;5054598;28;20186;-76
2024/01/29 01:10:05;;;;;;;3.78;3.47;;;18.10;56.50;;;;;;5055657;28;20228;-76
2024/01/29 01:12:30;;;;;;;4.43;4.03;;;18.10;56.50;;;;;;5052408;28;20183;-76
2024/01/29 01:14:56;;;;;;;4.05;3.70;;;18.10;56.40;;;;;;5053569;28;20707;-76
2024/01/29 01:17:22;;;;;;;4.03;3.67;;;18.10;57.20;;;;;;5032785;28;20196;-76
2024/01/29 01:19:48;;;;;;;4.10;3.70;;;18.10;56.50;;;;;;5053017;28;20183;-76
2024/01/29 01:22:14;;;;;;;4.03;3.70;;;18.10;56.50;;;;;;5054230;28;20191;-76
2024/01/29 01:24:40;;;;;;;4.40;4.00;;;18.10;56.50;;;;;;5053659;28;20209;-76
2024/01/29 01:27:06;;;;;;;4.20;3.80;;;18.10;56.60;;;;;;5041074;28;20197;-76
2024/01/29 01:29:31;;;;;;;4.10;3.80;;;18.10;56.40;;;;;;5054508;28;20206;-75
2024/01/29 01:31:57;;;;;;;3.85;3.55;;;18.10;56.40;;;;;;5050922;28;20191;-75
2024/01/29 01:34:23;;;;;;;3.92;3.63;;;18.10;56.40;;;;;;5051941;28;20213;-75
2024/01/29 01:36:48;;;;;;;4.28;3.88;;;18.10;56.40;;;;;;5050628;28;20672;-74
2024/01/29 01:39:14;;;;;;;3.83;3.40;;;18.10;56.50;;;;;;5052130;28;20193;-75
2024/01/29 01:41:49;;;;;;;3.83;3.42;;;18.10;56.50;;;;;;5050617;28;20193;-76
2024/01/29 01:44:15;;;;;;;4.25;3.65;;;18.10;56.40;;;;;;5050849;28;20198;-75
2024/01/29 01:46:41;;;;;;;3.85;3.55;;;18.10;56.40;;;;;;5054123;28;20234;-75
2024/01/29 01:49:07;;;;;;;4.15;3.75;;;18.10;56.40;;;;;;5052956;28;20189;-76
2024/01/29 01:51:33;;;;;;;3.95;3.58;;;18.10;56.40;;;;;;5069676;28;20697;-76
2024/01/29 01:54:02;;;;;;;3.75;3.45;;;18.10;56.40;;;;;;5083628;28;20197;-75
2024/01/29 01:56:29;;;;;;;3.53;3.22;;;18.10;56.40;;;;;;5083978;28;20292;-74
2024/01/29 01:58:59;;;;;;;3.40;3.10;;;18.10;56.40;;;;;;5083960;28;20190;-76
2024/01/29 02:01:27;;;;;;;3.58;3.28;;;18.10;56.40;;;;;;5067970;28;20198;-75
2024/01/29 02:03:53;;;;;;;3.53;3.22;;;18.10;56.40;;;;;;5027488;28;20197;-75
2024/01/29 02:06:19;;;;;;;4.15;3.85;;;18.00;56.30;;;;;;5050291;28;20213;-76
2024/01/29 02:08:45;;;;;;;3.58;3.35;;;18.10;56.40;;;;;;5051448;28;20265;-76
2024/01/29 02:11:10;;;;;;;3.72;3.42;;;18.10;56.50;;;;;;5050414;28;20241;-75
2024/01/29 02:13:36;;;;;;;3.53;3.22;;;18.10;56.40;;;;;;5049866;28;20209;-76
2024/01/29 02:16:03;;;;;;;3.80;3.42;;;18.10;56.40;;;;;;5033173;28;20260;-76
2024/01/29 02:18:29;;;;;;;3.28;3.00;;;18.10;56.40;;;;;;5049707;28;20197;-75
2024/01/29 02:20:55;;;;;;;3.33;3.05;;;18.00;56.30;;;;;;5052388;28;20276;-76
2024/01/29 02:23:21;;;;;;;3.85;3.55;;;18.00;56.30;;;;;;5050937;28;20240;-76
2024/01/29 02:25:47;;;;;;;3.20;2.97;;;18.10;56.40;;;;;;5051357;28;20214;-75
2024/01/29 02:28:13;;;;;;;3.20;3.00;;;18.10;56.40;;;;;;5034167;28;20182;-76
2024/01/29 02:30:38;;;;;;;3.03;2.83;;;18.10;56.30;;;;;;5033122;28;20253;-76
2024/01/29 02:33:04;;;;;;;3.55;3.25;;;18.10;56.30;;;;;;5050665;28;20248;-75
2024/01/29 02:35:30;;;;;;;3.78;3.47;;;18.00;56.20;;;;;;5051359;28;20203;-76
2024/01/29 02:37:56;;;;;;;3.50;3.20;;;18.10;56.30;;;;;;5040788;28;20194;-76
2024/01/29 02:40:22;;;;;;;3.42;3.13;;;18.10;56.30;;;;;;5034423;28;20202;-76
2024/01/29 02:42:47;;;;;;;3.40;3.10;;;18.10;56.30;;;;;;5067089;28;20182;-75
2024/01/29 02:45:13;;;;;;;3.53;3.00;;;18.00;56.10;;;;;;5051412;28;20206;-75
2024/01/29 02:47:39;;;;;;;3.58;3.28;;;18.00;56.10;;;;;;5033989;28;20273;-76
2024/01/29 02:50:05;;;;;;;3.40;3.10;;;18.00;56.10;;;;;;5050616;28;20268;-76
2024/01/29 02:52:31;;;;;;;3.00;2.70;;;18.00;56.20;;;;;;5050270;28;20283;-75
2024/01/29 02:54:57;;;;;;;3.05;2.85;;;18.10;56.30;;;;;;5050056;28;20221;-76
2024/01/29 02:57:26;;;;;;;3.40;3.10;;;18.00;56.10;;;;;;5054565;28;20190;-76
2024/01/29 02:59:52;;;;;;;2.85;2.65;;;18.00;56.20;;;;;;5054177;28;20234;-75
2024/01/29 03:02:19;;;;;;;3.15;2.92;;;18.10;56.30;;;;;;5032565;28;20194;-76
2024/01/29 03:04:45;;;;;;;2.95;2.70;;;18.00;56.10;;;;;;5053749;28;20214;-76
2024/01/29 03:07:10;;;;;;;3.30;3.00;;;18.00;56.20;;;;;;5053694;28;20190;-75
2024/01/29 03:09:36;;;;;;;2.75;2.55;;;18.10;56.30;;;;;;5053538;28;20225;-76
2024/01/29 03:12:03;;;;;;;3.10;2.80;;;18.00;56.10;;;;;;5053344;28;20193;-76
2024/01/29 03:14:29;;;;;;;2.80;2.60;;;18.00;56.20;;;;;;5086855;28;20226;-76
2024/01/29 03:16:55;;;;;;;3.28;3.08;;;18.00;56.10;;;;;;5053398;28;20252;-74
2024/01/29 03:19:21;;;;;;;2.85;2.65;;;18.10;56.20;;;;;;5053595;28;20205;-76
2024/01/29 03:21:47;;;;;;;2.80;2.60;;;18.10;56.20;;;;;;5053030;28;20190;-75
2024/01/29 03:24:13;;;;;;;3.10;2.80;;;18.10;56.30;;;;;;5052989;28;20193;-76
2024/01/29 03:26:39;;;;;;;2.83;2.63;;;18.00;56.10;;;;;;5052819;28;20218;-76
2024/01/29 03:29:04;;;;;;;2.92;2.72;;;18.10;56.20;;;;;;5067651;28;20197;-75
2024/01/29 03:31:30;;;;;;;2.70;2.50;;;18.00;56.10;;;;;;5064334;28;20266;-75
2024/01/29 03:33:56;;;;;;;2.53;2.33;;;18.00;56.10;;;;;;5060848;28;20197;-76
2024/01/29 03:36:22;;;;;;;2.95;2.70;;;18.00;56.00;;;;;;5053086;28;20221;-76
2024/01/29 03:38:48;;;;;;;2.60;2.40;;;18.00;56.70;;;;;;5060756;28;20240;-76
2024/01/29 03:41:14;;;;;;;2.90;2.70;;;18.00;56.10;;;;;;5069923;28;20190;-76
2024/01/29 03:43:40;;;;;;;2.58;2.38;;;18.00;56.00;;;;;;5054205;28;20202;-76
2024/01/29 03:46:05;;;;;;;2.92;2.72;;;18.10;56.10;;;;;;5069411;28;20221;-75
2024/01/29 03:48:31;;;;;;;2.70;2.50;;;18.00;55.90;;;;;;5055262;28;20194;-75
2024/01/29 03:50:57;;;;;;;2.70;2.50;;;18.00;56.00;;;;;;5052099;28;20218;-76
2024/01/29 03:53:22;;;;;;;2.65;2.45;;;18.00;56.00;;;;;;5052861;28;20189;-76
2024/01/29 03:55:48;;;;;;;2.40;2.20;;;18.00;56.00;;;;;;5060730;28;20210;-75
2024/01/29 03:58:14;;;;;;;2.80;2.60;;;18.10;56.10;;;;;;5053255;28;20183;-76
2024/01/29 04:00:39;;;;;;;2.50;2.30;;;18.00;56.00;;;;;;5035927;28;20214;-76
2024/01/29 04:03:06;;;;;;;2.47;2.28;;;18.00;56.00;;;;;;5053536;28;20190;-76
2024/01/29 04:05:33;;;;;;;2.67;2.25;;;18.10;56.10;;;;;;5051544;28;20241;-74
2024/01/29 04:07:59;;;;;;;2.47;2.28;;;18.00;56.50;;;;;;5051351;28;20247;-76
2024/01/29 04:10:25;;;;;;;2.50;2.30;;;18.10;56.10;;;;;;5052370;28;20214;-76
2024/01/29 04:12:51;;;;;;;2.78;2.10;;;18.00;56.00;;;;;;5043107;28;20232;-75
2024/01/29 04:15:17;;;;;;;2.47;2.28;;;18.00;56.00;;;;;;5035755;28;20229;-75
2024/01/29 04:17:42;;;;;;;2.20;2.03;;;18.00;56.00;;;;;;5076311;28;20285;-76
2024/01/29 04:20:09;;;;;;;2.42;2.22;;;18.10;56.00;;;;;;5053569;28;20243;-76
2024/01/29 04:22:35;;;;;;;2.70;2.50;;;18.00;55.90;;;;;;5035193;28;20197;-75
2024/01/29 04:25:04;;;;;;;2.60;2.40;;;18.10;56.00;;;;;;5055452;28;20263;-75
2024/01/29 04:27:31;;;;;;;2.60;2.40;;;18.00;56.00;;;;;;5065085;28;20205;-76
2024/01/29 04:29:57;;;;;;;2.20;2.05;;;18.00;55.90;;;;;;5035324;28;20198;-75
2024/01/29 04:32:22;;;;;;;2.50;2.30;;;18.10;56.00;;;;;;5019083;28;20198;-75
2024/01/29 04:34:48;;;;;;;2.50;2.30;;;18.00;55.90;;;;;;5034843;28;20210;-75
2024/01/29 04:37:14;;;;;;;2.67;2.47;;;18.10;56.00;;;;;;5064323;28;20190;-76
2024/01/29 04:39:40;;;;;;;2.42;2.22;;;18.00;55.90;;;;;;5062496;28;20187;-75
2024/01/29 04:42:07;;;;;;;2.63;2.42;;;18.00;55.90;;;;;;5062168;28;20319;-75
2024/01/29 04:44:33;;;;;;;2.85;2.55;;;18.00;56.50;;;;;;5062332;28;20204;-75
2024/01/29 04:46:59;;;;;;;2.33;2.13;;;18.00;55.90;;;;;;5064291;28;20189;-76
2024/01/29 04:49:25;;;;;;;3.38;3.08;;;18.00;55.90;;;;;;5038605;28;20190;-76
2024/01/29 04:51:51;;;;;;;3.22;3.00;;;18.00;55.90;;;;;;5060395;28;20212;-76
2024/01/29 04:54:17;;;;;;;2.92;2.72;;;18.00;55.90;;;;;;5063401;28;20182;-76
2024/01/29 04:56:43;;;;;;;2.80;2.60;;;18.00;55.90;;;;;;5075641;28;20692;-76
2024/01/29 04:59:08;;;;;;;3.20;2.90;;;18.00;55.90;;;;;;5069004;28;20186;-76
2024/01/29 05:01:35;;;;;;;2.88;2.45;;;18.00;56.00;;;;;;5053663;28;20190;-76
2024/01/29 05:04:00;;;;;;;2.80;2.60;;;18.00;55.90;;;;;;5052522;28;20213;-75
2024/01/29 05:06:26;;;;;;;3.05;2.80;;;18.00;55.90;;;;;;5051241;28;20202;-76
2024/01/29 05:08:52;;;;;;;2.88;2.67;;;18.00;55.90;;;;;;5052823;28;20194;-76
2024/01/29 05:11:18;;;;;;;3.00;2.80;;;18.00;56.00;;;;;;5053306;28;20209;-76
2024/01/29 05:13:43;;;;;;;2.88;2.60;;;18.00;55.90;;;;;;5053203;28;20240;-76
2024/01/29 05:16:15;;;;;;;2.50;2.30;;;18.00;56.10;;;;;;5056727;28;20238;-76
2024/01/29 05:18:41;;;;;;;2.90;2.58;;;18.00;55.90;;;;;;5057351;28;20240;-75
2024/01/29 05:21:08;;;;;;;2.92;2.70;;;18.00;56.00;;;;;;5063252;28;20186;-75
2024/01/29 05:23:34;;;;;;;2.53;2.30;;;18.00;55.90;;;;;;5037226;28;20260;-77
2024/01/29 05:26:00;;;;;;;2.80;2.60;;;18.00;55.90;;;;;;5076054;28;20220;-76
2024/01/29 05:28:25;;;;;;;2.95;2.65;;;18.00;55.90;;;;;;5055590;28;20186;-75
2024/01/29 05:30:52;;;;;;;2.70;2.50;;;18.00;55.80;;;;;;5068916;28;20209;-74
2024/01/29 05:33:18;;;;;;;2.63;2.42;;;18.00;55.80;;;;;;5062495;28;20181;-75
2024/01/29 05:35:43;;;;;;;2.53;2.33;;;18.00;55.80;;;;;;5058326;28;20208;-74
2024/01/29 05:38:09;;;;;;;2.53;2.33;;;18.00;55.80;;;;;;5061025;28;20188;-75
2024/01/29 05:40:35;;;;;;;2.50;2.30;;;18.00;55.80;;;;;;5059455;28;20232;-75
2024/01/29 05:43:01;;;;;;;2.55;2.35;;;18.00;55.80;;;;;;5073626;28;20213;-75
2024/01/29 05:45:26;;;;;;;2.60;2.40;;;18.00;55.80;;;;;;5033702;28;20202;-75
2024/01/29 05:47:52;;;;;;;2.25;2.13;;;18.00;55.90;;;;;;5050419;28;20194;-75
2024/01/29 05:50:18;;;;;;;2.80;2.60;;;18.00;55.90;;;;;;5061743;28;20205;-74
2024/01/29 05:52:44;;;;;;;3.05;2.75;;;18.00;55.80;;;;;;5047907;28;20181;-74
2024/01/29 05:55:10;;;;;;;2.70;2.50;;;18.00;55.80;;;;;;5043526;28;20668;-74
2024/01/29 05:57:36;;;;;;;2.75;2.55;;;18.00;55.80;;;;;;5036213;28;20275;-75
2024/01/29 06:00:06;;;;;;;2.70;2.50;;;18.00;55.80;;;;;;5044849;28;20196;-75
2024/01/29 06:02:45;;;;;;;2.80;2.60;;;17.90;55.80;;;;;;5066781;28;20280;-73
2024/01/29 06:05:11;;;;;;;2.70;2.50;;;18.00;55.80;;;;;;5051714;28;20211;-74
2024/01/29 06:07:39;;;;;;;2.70;2.50;;;17.90;55.80;;;;;;5041838;28;20255;-74
2024/01/29 06:10:08;;;;;;;2.35;2.13;;;17.90;55.80;;;;;;5086650;28;20207;-76
2024/01/29 06:12:34;;;;;;;2.40;2.20;;;17.90;55.70;;;;;;5067420;28;20177;-74
2024/01/29 06:15:00;;;;;;;2.47;2.28;;;17.90;55.80;;;;;;5050207;28;20205;-73
2024/01/29 06:17:26;;;;;;;2.50;2.30;;;17.90;55.70;;;;;;5056042;28;20197;-74
2024/01/29 06:19:51;;;;;;;2.63;2.42;;;17.90;55.70;;;;;;5051912;28;20194;-74
2024/01/29 06:22:18;;;;;;;3.03;2.83;;;17.90;55.60;;;;;;5066542;28;20189;-74
2024/01/29 06:24:43;;;;;;;2.50;2.30;;;17.90;55.60;;;;;;5056868;28;20221;-74
2024/01/29 06:27:09;;;;;;;3.10;2.60;;;17.90;55.60;;;;;;5055553;28;20194;-73
2024/01/29 06:29:35;;;;;;;2.70;2.50;;;17.90;55.60;;;;;;5039215;28;20617;-75
2024/01/29 06:32:01;;;;;;;2.65;2.30;;;17.90;55.60;;;;;;5061484;28;20198;-75
2024/01/29 06:34:27;;;;;;;2.88;2.53;;;17.90;55.60;;;;;;5062884;28;20214;-75
2024/01/29 06:36:54;;;;;;;2.72;2.53;;;17.90;55.60;;;;;;5051786;28;20186;-74
2024/01/29 06:39:20;;;;;;;2.80;2.60;;;17.90;55.60;;;;;;5059813;28;20186;-75
2024/01/29 06:41:46;;;;;;;2.83;2.63;;;17.90;55.60;;;;;;5037201;28;20395;-75
2024/01/29 06:44:11;;;;;;;2.50;2.30;;;17.90;55.40;;;;;;5053528;28;20202;-74
2024/01/29 06:46:37;;;;;;;2.80;2.50;;;17.90;55.50;;;;;;5059302;28;20256;-74
2024/01/29 06:49:03;;;;;;;3.05;2.75;;;17.90;55.50;;;;;;5060757;28;20194;-74
2024/01/29 06:51:29;;;;;;;3.25;2.95;;;17.90;55.50;;;;;;5050848;28;20233;-74
2024/01/29 06:53:57;;;;;;;2.92;2.70;;;17.90;55.50;;;;;;5059756;28;20195;-75
2024/01/29 06:56:23;;;;;;;2.80;2.60;;;17.90;55.40;;;;;;5045613;28;20197;-75
2024/01/29 06:58:48;;;;;;;3.35;3.00;;;17.90;55.50;;;;;;5059489;28;20179;-74
2024/01/29 07:01:20;;;;;;;3.55;3.25;;;17.80;55.20;;;;;;5053853;28;20268;-75
2024/01/29 07:03:46;;;;;;;3.70;3.10;;;17.90;55.40;;;;;;5058961;28;20190;-73
2024/01/29 07:06:11;;;;;;;3.60;3.30;;;17.90;55.30;;;;;;5041602;28;20271;-75
2024/01/29 07:08:37;;;;;;;4.03;3.63;;;17.90;55.40;;;;;;5053320;28;20256;-75
2024/01/29 07:11:03;;;;;;;3.45;3.15;;;17.90;55.30;;;;;;5059583;28;20218;-74
2024/01/29 07:13:29;;;;;;;2.85;2.65;;;17.80;55.10;;;;;;5097515;28;20188;-74
2024/01/29 07:15:54;;;;;;;3.55;3.25;;;17.80;55.20;;;;;;5064231;28;20248;-74
2024/01/29 07:18:22;;;;;;;3.95;3.58;;;17.90;55.30;;;;;;5057409;28;20265;-75
2024/01/29 07:20:49;;;;;;;3.53;3.22;;;17.90;55.20;;;;;;5042532;28;20228;-75
2024/01/29 07:23:16;;;;;;;4.25;3.85;;;17.90;55.20;;;;;;5061333;28;20648;-75
2024/01/29 07:25:41;;;;;;;4.22;3.83;;;17.90;55.30;;;;;;5059352;28;20289;-75
2024/01/29 07:28:08;;;;;;;3.95;3.55;;;17.90;55.20;;;;;;5059282;28;20204;-75
2024/01/29 07:30:34;;;;;;;3.88;3.50;;;17.90;55.20;;;;;;5052763;28;20217;-75
2024/01/29 07:33:02;;;;;;;4.00;3.60;;;17.90;55.20;;;;;;5091382;28;20186;-75
2024/01/29 07:35:28;;;;;;;3.80;3.50;;;17.90;55.20;;;;;;5058697;28;20229;-75
2024/01/29 07:37:54;;;;;;;3.85;3.55;;;17.90;55.20;;;;;;5055454;28;20270;-75
2024/01/29 07:40:20;;;;;;;4.53;4.13;;;17.90;55.20;;;;;;5056557;28;20269;-75
2024/01/29 07:42:47;;;;;;;5.07;4.63;;;18.00;55.20;;;;;;5057391;28;20218;-74
2024/01/29 07:45:13;;;;;;;4.43;4.00;;;17.90;55.10;;;;;;5060901;28;20207;-75
2024/01/29 07:47:39;;;;;;;4.40;4.00;;;17.90;55.20;;;;;;5060477;28;20281;-75
2024/01/29 07:50:05;;;;;;;4.95;4.55;;;17.90;55.10;;;;;;5042090;28;20301;-75
2024/01/29 07:52:31;;;;;;;5.20;4.70;;;17.90;55.10;;;;;;5043765;28;20177;-74
2024/01/29 07:54:57;;;;;;;4.40;4.00;;;17.90;55.10;;;;;;5053504;28;20210;-75
2024/01/29 07:57:25;;;;;;;5.00;4.53;;;18.00;55.30;;;;;;5035514;28;20269;-74
2024/01/29 07:59:50;;;;;;;5.18;4.65;;;18.00;55.20;;;;;;5040578;28;20190;-75
2024/01/29 08:02:16;;;;;;;5.00;4.50;;;18.00;55.20;;;;;;5053509;28;20201;-75
2024/01/29 08:04:42;;;;;;;4.78;4.38;;;17.90;55.10;;;;;;5056864;28;20265;-75
2024/01/29 08:07:08;;;;;;;5.60;5.00;;;18.00;55.20;;;;;;5073207;28;20657;-75
2024/01/29 08:09:34;;;;;;;5.32;4.82;;;18.00;55.20;;;;;;5053333;28;20198;-75
2024/01/29 08:11:59;;;;;;;5.07;4.57;;;18.00;55.10;;;;;;5095357;28;20179;-75
2024/01/29 08:14:25;;;;;;;5.05;4.65;;;18.00;55.20;;;;;;5061258;28;20233;-75
2024/01/29 08:16:51;;;;;;;5.22;4.72;;;18.00;55.20;;;;;;5057587;28;20229;-74
2024/01/29 08:19:17;;;;;;;5.18;4.68;;;18.00;55.20;;;;;;5067407;28;20263;-75
2024/01/29 08:21:43;;;;;;;6.30;5.68;;;18.00;55.20;;;;;;5045168;28;20232;-75
2024/01/29 08:24:09;;;;;;;6.10;5.50;;;18.00;55.10;;;;;;5051700;28;20215;-75
2024/01/29 08:26:34;;;;;;;5.65;5.15;;;18.00;55.10;;;;;;5055934;28;20222;-74
2024/01/29 08:29:00;;;;;;;5.57;5.07;;;18.00;55.30;;;;;;5053295;28;20190;-74
2024/01/29 08:31:26;;;;;;;6.13;5.53;;;18.00;55.20;;;;;;5059639;28;20225;-74
2024/01/29 08:33:52;;;;;;;6.20;5.60;;;18.00;55.20;;;;;;5051704;28;20194;-75
2024/01/29 08:36:21;;;;;;;6.15;5.43;;;18.00;55.30;;;;;;5056779;28;20202;-75
2024/01/29 08:38:47;;;;;;;6.20;5.60;;;18.00;55.20;;;;;;5051701;28;20195;-75
2024/01/29 08:41:13;;;;;;;6.03;5.43;;;18.00;55.30;;;;;;5093398;28;20225;-75
2024/01/29 08:43:40;;;;;;;7.03;6.15;;;18.00;55.20;;;;;;5055449;28;20190;-75
2024/01/29 08:46:06;;;;;;;6.05;5.55;;;18.00;55.30;;;;;;5051282;28;20209;-75
2024/01/29 08:48:32;;;;;;;6.78;6.18;;;18.00;55.30;;;;;;5059450;28;20196;-75
2024/01/29 08:50:59;;;;;;;6.65;6.03;;;18.00;55.30;;;;;;5049373;28;20219;-75
2024/01/29 08:53:25;;;;;;;6.72;6.13;;;18.00;55.30;;;;;;5054977;28;20254;-75
2024/01/29 08:55:51;;;;;;;7.05;6.35;;;18.00;55.30;;;;;;5054838;28;20240;-75
2024/01/29 08:58:18;;;;;;;7.03;6.32;;;18.00;55.30;;;;;;5057354;28;20186;-74
2024/01/29 09:00:44;;;;;;;7.28;6.57;;;18.00;55.30;;;;;;5057728;28;20277;-75
2024/01/29 09:03:10;;;;;;;8.13;7.32;;;18.10;55.40;;;;;;5060137;28;20243;-75
2024/01/29 09:05:38;;;;;;;7.63;6.93;;;18.00;55.30;;;;;;5040389;28;20344;-75
2024/01/29 09:08:06;;;;;;;8.18;7.38;;;18.00;55.30;;;;;;5071792;28;20231;-74
2024/01/29 09:10:31;;;;;;;8.13;7.32;;;18.10;55.40;;;;;;5053685;28;20213;-75
2024/01/29 09:12:57;;;;;;;8.70;7.60;;;18.10;55.40;;;;;;5052191;28;20194;-75
2024/01/29 09:15:23;;;;;;;7.88;7.18;;;18.10;55.40;;;;;;5054543;28;20205;-74
2024/01/29 09:17:48;;;;;;;8.27;7.50;;;18.00;55.30;;;;;;5058130;28;20182;-75
2024/01/29 09:20:15;;;;;;;7.80;7.03;;;18.10;55.40;;;;;;5059284;28;20192;-75
2024/01/29 09:22:41;;;;;;;8.55;7.75;;;18.10;55.40;;;;;;5075928;28;20187;-75
2024/01/29 09:25:07;;;;;;;8.25;7.28;;;18.10;55.40;;;;;;5084019;28;20275;-75
2024/01/29 09:27:34;;;;;;;8.45;7.65;;;18.10;55.40;;;;;;5054246;28;20217;-75
2024/01/29 09:30:00;;;;;;;8.50;7.70;;;18.10;55.40;;;;;;5050641;28;20221;-74
2024/01/29 09:32:26;;;;;;;7.97;7.18;;;18.10;55.40;;;;;;5054037;28;20194;-75
2024/01/29 09:34:53;;;;;;;7.93;7.15;;;18.20;55.50;;;;;;5037440;28;20293;-74
2024/01/29 09:37:20;;;;;;;8.75;7.85;;;18.20;55.50;;;;;;5092726;28;20186;-75
2024/01/29 09:39:46;;;;;;;8.43;7.57;;;18.20;55.50;;;;;;5038195;28;20210;-75
2024/01/29 09:42:18;;;;;;;8.27;7.43;;;18.20;55.50;;;;;;5040189;28;20700;-75
2024/01/29 09:44:49;;;;;;;7.97;7.20;;;18.20;55.50;;;;;;5053660;28;20292;-75
2024/01/29 09:47:17;;;;;;;7.80;7.05;;;18.20;55.50;;;;;;5090565;28;20219;-75
2024/01/29 09:49:43;;;;;;;8.45;7.55;;;18.20;55.50;;;;;;5067084;28;20166;-74
2024/01/29 09:52:14;;;;;;;8.57;7.78;;;18.20;56.10;;;;;;5058568;28;20666;-74
2024/01/29 09:54:41;;;;;;;8.95;8.02;;;18.20;55.50;;;;;;5050196;28;20264;-75
2024/01/29 09:57:12;;;;;;;8.48;7.65;;;18.20;55.50;;;;;;5086953;28;20186;-73
2024/01/29 09:59:40;;;;;;;8.32;7.43;;;18.20;55.50;;;;;;5052623;28;20182;-75
2024/01/29 10:02:08;;;;;;;8.70;7.90;;;18.30;55.60;;;;;;5057502;28;20194;-75
2024/01/29 10:04:40;;;;;;;8.95;7.90;;;18.20;55.50;;;;;;5052463;28;20265;-74
2024/01/29 10:07:07;;;;;;;8.80;7.90;;;18.30;56.20;;;;;;5036384;28;20565;-74
2024/01/29 10:09:32;;;;;;;8.20;7.40;;;18.30;55.60;;;;;;5042489;28;20190;-75
2024/01/29 10:11:58;;;;;;;9.30;8.30;;;18.20;55.60;;;;;;5054340;28;20222;-75
2024/01/29 10:14:27;;;;;;;9.55;8.55;;;18.30;55.60;;;;;;5052889;28;20649;-74
2024/01/29 10:16:52;;;;;;;9.00;8.10;;;18.30;55.70;;;;;;5036601;28;20533;-75
2024/01/29 10:19:18;;;;;;;9.73;8.60;;;18.30;55.80;;;;;;5033452;28;20213;-75
2024/01/29 10:21:48;;;;;;;8.60;7.80;;;18.30;55.80;;;;;;5055438;28;20200;-74
2024/01/29 10:24:16;;;;;;;9.25;8.35;;;18.30;55.80;;;;;;5062634;28;20187;-74
2024/01/29 10:26:44;;;;;;;9.13;8.20;;;18.30;55.80;;;;;;5040155;28;20280;-75
2024/01/29 10:29:11;;;;;;;9.48;8.57;;;18.30;55.80;;;;;;5055199;28;20179;-74
2024/01/29 10:31:38;;;;;;;10.10;8.65;;;18.30;55.80;;;;;;5053332;28;20251;-74
2024/01/29 10:34:05;;;;;;;9.45;8.55;;;18.30;55.80;;;;;;5050860;28;20224;-74
2024/01/29 10:36:31;;;;;;;8.88;7.97;;;18.30;55.80;;;;;;5052459;28;20198;-75
2024/01/29 10:39:02;;;;;;;9.85;8.85;;;18.30;55.80;;;;;;5085914;28;20193;-75
2024/01/29 10:41:32;;;;;;;9.85;8.85;;;18.30;55.80;;;;;;5088384;28;20190;-74
2024/01/29 10:44:02;;;;;;;9.45;8.52;;;18.40;55.90;;;;;;5083327;28;20277;-74
2024/01/29 10:46:36;;;;;;;9.25;8.07;;;18.30;55.80;;;;;;5071298;28;20567;-74
2024/01/29 10:49:03;;;;;;;8.90;8.10;;;18.30;55.80;;;;;;5054515;28;20698;-74
2024/01/29 10:51:34;;;;;;;9.32;8.35;;;18.30;55.90;;;;;;5034699;28;20282;-73
2024/01/29 10:54:01;;;;;;;9.18;7.85;;;18.30;55.80;;;;;;5052991;28;20274;-72
2024/01/29 10:56:28;;;;;;;9.82;8.77;;;18.30;55.90;;;;;;5055625;28;20256;-73
2024/01/29 10:58:58;;;;;;;8.70;7.82;;;18.30;55.80;;;;;;5062770;28;20224;-73
2024/01/29 11:01:24;;;;;;;9.00;8.10;;;18.30;55.90;;;;;;5086101;28;20214;-73
2024/01/29 11:03:51;;;;;;;10.15;8.45;;;18.40;56.00;;;;;;5053452;28;20206;-73
2024/01/29 11:06:30;;;;;;;9.65;8.18;;;18.30;56.00;;;;;;5085138;28;20218;-73
2024/01/29 11:09:08;;;;;;;9.63;8.43;;;18.40;56.00;;;;;;5048126;28;20186;-73
2024/01/29 11:11:37;;;;;;;9.80;8.80;;;18.40;56.10;;;;;;5052600;28;20202;-73
2024/01/29 11:14:02;;;;;;;8.45;7.35;;;18.40;56.00;;;;;;5049705;28;20183;-74
2024/01/29 11:16:28;;;;;;;8.85;7.95;;;18.40;56.00;;;;;;5054745;28;20206;-73
2024/01/29 11:18:54;;;;;;;8.57;7.68;;;18.40;56.00;;;;;;5056364;28;20183;-73
2024/01/29 11:21:24;;;;;;;9.15;8.25;;;18.40;56.10;;;;;;5054137;28;20183;-74
2024/01/29 11:23:56;;;;;;;8.43;7.63;;;18.40;56.10;;;;;;5078636;28;20209;-73
2024/01/29 11:26:25;;;;;;;8.57;7.70;;;18.40;56.10;;;;;;5055933;28;20222;-73
2024/01/29 11:29:02;;;;;;;9.25;8.35;;;18.40;56.20;;;;;;5040127;28;20179;-73
2024/01/29 11:31:48;;;;;;;8.43;7.63;;;18.40;56.20;;;;;;5058380;28;20228;-74
2024/01/29 11:34:15;;;;;;;8.63;7.72;;;18.40;56.20;;;;;;5053110;28;20542;-73
2024/01/29 11:36:41;;;;;;;7.47;6.78;;;18.40;56.20;;;;;;5054843;28;20190;-73
2024/01/29 11:39:14;;;;;;;7.90;7.10;;;18.40;56.20;;;;;;5086367;28;20202;-73
2024/01/29 11:41:51;;;;;;;7.95;7.18;;;18.40;56.20;;;;;;5091357;28;20193;-73
2024/01/29 11:44:23;;;;;;;8.07;7.28;;;18.40;56.20;;;;;;5054411;28;20204;-74
2024/01/29 11:46:50;;;;;;;8.05;7.25;;;18.40;56.20;;;;;;5056706;28;20260;-74
2024/01/29 11:49:26;;;;;;;7.25;6.55;;;18.40;56.90;;;;;;5063774;28;20182;-74
2024/01/29 11:51:55;;;;;;;7.70;6.97;;;18.40;56.20;;;;;;5061013;28;20202;-74
2024/01/29 11:54:24;;;;;;;7.38;6.63;;;18.50;56.30;;;;;;5053701;28;20665;-74
2024/01/29 11:56:49;;;;;;;6.93;6.22;;;18.40;56.20;;;;;;5059607;28;20182;-74
2024/01/29 11:59:15;;;;;;;7.03;6.32;;;18.40;56.20;;;;;;5070904;28;20186;-73
2024/01/29 12:01:43;;;;;;;6.88;6.18;;;18.40;56.30;;;;;;5080014;28;20174;-74
2024/01/29 12:04:12;;;;;;;7.38;6.18;;;18.40;56.20;;;;;;5056061;28;20208;-74
2024/01/29 12:06:39;;;;;;;6.75;6.10;;;18.50;56.30;;;;;;5054583;28;20217;-74
2024/01/29 12:09:10;;;;;;;6.45;5.95;;;18.50;56.40;;;;;;5053486;28;20564;-74
2024/01/29 12:11:36;;;;;;;6.78;6.18;;;18.50;56.20;;;;;;5032371;28;20203;-73
2024/01/29 12:14:02;;;;;;;6.38;5.78;;;18.50;56.30;;;;;;5092109;28;20543;-73
2024/01/29 12:16:29;;;;;;;6.25;5.65;;;18.50;56.30;;;;;;5086826;28;20203;-73
2024/01/29 12:18:55;;;;;;;5.90;5.40;;;18.50;56.30;;;;;;5039909;28;20617;-73
2024/01/29 12:21:21;;;;;;;6.00;5.50;;;18.50;56.40;;;;;;5053044;28;20195;-73
2024/01/29 12:23:48;;;;;;;5.75;5.13;;;18.50;56.30;;;;;;5038257;28;20213;-72
2024/01/29 12:26:25;;;;;;;6.72;5.97;;;18.50;56.30;;;;;;5082726;28;20218;-74
2024/01/29 12:28:51;;;;;;;5.25;4.75;;;18.50;56.30;;;;;;5055603;28;20180;-74
2024/01/29 12:31:19;;;;;;;5.68;5.18;;;18.50;56.40;;;;;;5041295;28;20198;-73
2024/01/29 12:33:47;;;;;;;6.13;5.53;;;18.50;56.30;;;;;;5060826;28;20189;-73
2024/01/29 12:36:17;;;;;;;5.70;5.10;;;18.50;56.40;;;;;;5053638;28;20630;-74
2024/01/29 12:38:55;;;;;;;6.15;5.65;;;18.50;56.30;;;;;;5051482;28;20640;-73
2024/01/29 12:41:21;;;;;;;5.15;4.75;;;18.50;56.40;;;;;;5052416;28;20187;-74
2024/01/29 12:43:54;;;;;;;5.30;4.80;;;18.50;56.30;;;;;;5067962;28;20194;-72
2024/01/29 12:46:19;;;;;;;5.40;4.90;;;18.50;56.30;;;;;;5050506;28;20220;-73